createdAt,value
2023-02-25T00:01:41.762Z,1.00
2023-02-25T00:04:11.354Z,1.10
2023-02-25T00:06:38.017Z,1.10
2023-02-25T00:09:06.459Z,1.10
2023-02-25T00:11:33.171Z,1.00
2023-02-25T00:13:59.889Z,1.00
2023-02-25T00:16:27.068Z,1.10
2023-02-25T00:18:57.623Z,1.00
2023-02-25T00:21:24.958Z,1.00
2023-02-25T00:23:53.923Z,1.00
2023-02-25T00:26:21.709Z,1.10
2023-02-25T00:28:49.146Z,1.00
2023-02-25T00:31:19.335Z,0.90
2023-02-25T00:33:46.385Z,1.00
2023-02-25T00:36:20.043Z,1.00
2023-02-25T00:38:48.353Z,1.00
2023-02-25T00:41:17.741Z,1.10
2023-02-25T00:43:49.617Z,1.10
2023-02-25T00:46:16.514Z,0.90
2023-02-25T00:48:43.344Z,1.00
2023-02-25T00:51:13.409Z,1.00
2023-02-25T00:53:40.992Z,1.00
2023-02-25T00:56:09.932Z,0.90
2023-02-25T00:58:38.461Z,0.80
2023-02-25T01:01:14.588Z,0.80
2023-02-25T01:03:41.298Z,0.70
2023-02-25T01:06:09.176Z,0.70
2023-02-25T01:08:36.652Z,0.80
2023-02-25T01:11:16.091Z,0.90
2023-02-25T01:13:43.712Z,0.90
2023-02-25T01:16:12.513Z,0.90
2023-02-25T01:18:40.548Z,0.80
2023-02-25T01:21:07.628Z,0.90
2023-02-25T01:23:34.637Z,0.90
2023-02-25T01:26:04.315Z,0.80
2023-02-25T01:28:31.142Z,0.80
2023-02-25T01:30:57.900Z,0.90
2023-02-25T01:33:24.693Z,0.90
2023-02-25T01:35:51.434Z,0.90
2023-02-25T01:38:18.434Z,1.00
2023-02-25T01:40:45.593Z,1.10
2023-02-25T01:43:15.974Z,1.20
2023-02-25T01:45:44.783Z,1.20
2023-02-25T01:48:18.633Z,1.20
2023-02-25T01:50:58.660Z,1.20
2023-02-25T01:53:29.390Z,1.30
2023-02-25T01:55:58.789Z,1.20
2023-02-25T01:58:27.607Z,1.10
2023-02-25T02:00:55.444Z,1.10
2023-02-25T02:03:30.522Z,1.00
2023-02-25T02:06:13.256Z,0.90
2023-02-25T02:08:42.374Z,0.80
2023-02-25T02:11:09.245Z,0.70
2023-02-25T02:13:39.470Z,0.80
2023-02-25T02:16:09.048Z,0.80
2023-02-25T02:18:37.697Z,0.80
2023-02-25T02:21:17.921Z,0.80
2023-02-25T02:23:58.749Z,0.80
2023-02-25T02:26:43.897Z,0.80
2023-02-25T02:29:25.614Z,0.90
2023-02-25T02:32:15.170Z,0.90
2023-02-25T02:34:58.523Z,1.00
2023-02-25T02:37:40.141Z,1.00
2023-02-25T02:40:15.760Z,1.10
2023-02-25T02:43:05.454Z,1.10
2023-02-25T02:45:48.760Z,1.10
2023-02-25T02:48:31.668Z,1.20
2023-02-25T02:51:02.175Z,1.20
2023-02-25T02:53:41.004Z,1.20
2023-02-25T02:56:11.722Z,1.20
2023-02-25T02:58:45.896Z,1.10
2023-02-25T03:01:17.135Z,1.00
2023-02-25T03:03:49.295Z,1.10
2023-02-25T03:06:20.755Z,1.10
2023-02-25T03:09:02.372Z,1.00
2023-02-25T03:11:29.426Z,0.90
2023-02-25T03:13:56.625Z,1.00
2023-02-25T03:16:38.103Z,1.00
2023-02-25T03:19:32.547Z,1.00
2023-02-25T03:22:06.494Z,0.80
2023-02-25T03:24:39.265Z,0.80
2023-02-25T03:27:26.713Z,0.70
2023-02-25T03:30:15.278Z,0.60
2023-02-25T03:32:46.548Z,0.50
2023-02-25T03:35:17.389Z,0.50
2023-02-25T03:37:49.549Z,0.50
2023-02-25T03:40:18.356Z,0.50
2023-02-25T03:42:52.372Z,0.60
2023-02-25T03:45:21.238Z,0.70
2023-02-25T03:47:48.290Z,0.70
2023-02-25T03:50:27.774Z,0.60
2023-02-25T03:52:58.898Z,0.60
2023-02-25T03:55:44.611Z,0.60
2023-02-25T03:58:11.664Z,0.60
2023-02-25T04:00:40.792Z,0.70
2023-02-25T04:03:07.534Z,0.80
2023-02-25T04:05:35.922Z,0.90
2023-02-25T04:08:02.847Z,0.80
2023-02-25T04:10:34.157Z,0.90
2023-02-25T04:13:00.912Z,0.90
2023-02-25T04:15:29.431Z,1.00
2023-02-25T04:17:56.134Z,1.00
2023-02-25T04:20:22.771Z,0.80
2023-02-25T04:22:49.453Z,0.80
2023-02-25T04:25:16.233Z,0.80
2023-02-25T04:27:42.900Z,0.80
2023-02-25T04:30:10.225Z,0.70
2023-02-25T04:32:36.959Z,0.60
2023-02-25T04:35:03.940Z,0.60
2023-02-25T04:37:31.522Z,0.70
2023-02-25T04:39:58.393Z,0.70
2023-02-25T04:42:25.178Z,0.70
2023-02-25T04:44:51.959Z,0.70
2023-02-25T04:47:19.163Z,0.70
2023-02-25T04:49:46.115Z,0.70
2023-02-25T04:52:14.172Z,0.70
2023-02-25T04:54:41.155Z,0.60
2023-02-25T04:57:08.700Z,0.60
2023-02-25T04:59:35.369Z,0.70
2023-02-25T05:02:02.135Z,0.70
2023-02-25T05:04:28.883Z,0.70
2023-02-25T05:06:55.599Z,0.60
2023-02-25T05:09:22.417Z,0.70
2023-02-25T05:11:49.250Z,0.80
2023-02-25T05:14:15.924Z,0.80
2023-02-25T05:16:42.716Z,0.70
2023-02-25T05:19:14.363Z,0.70
2023-02-25T05:21:41.017Z,0.60
2023-02-25T05:24:08.103Z,0.60
2023-02-25T05:26:34.773Z,0.60
2023-02-25T05:29:01.494Z,0.60
2023-02-25T05:31:28.335Z,0.60
2023-02-25T05:33:55.145Z,0.60
2023-02-25T05:36:24.126Z,0.60
2023-02-25T05:38:58.989Z,0.50
2023-02-25T05:41:26.249Z,0.40
2023-02-25T05:43:53.100Z,0.50
2023-02-25T05:46:19.810Z,0.50
2023-02-25T05:48:46.624Z,0.50
2023-02-25T05:51:22.352Z,0.40
2023-02-25T05:53:50.133Z,0.40
2023-02-25T05:56:22.893Z,0.40
2023-02-25T05:58:49.812Z,0.50
2023-02-25T06:01:22.973Z,0.50
2023-02-25T06:03:51.680Z,0.60
2023-02-25T06:06:24.206Z,0.60
2023-02-25T06:08:52.510Z,0.70
2023-02-25T06:11:25.389Z,0.60
2023-02-25T06:13:54.165Z,0.60
2023-02-25T06:16:21.757Z,0.50
2023-02-25T06:18:49.564Z,0.40
2023-02-25T06:21:16.456Z,0.50
2023-02-25T06:23:44.451Z,0.40
2023-02-25T06:26:14.315Z,0.50
2023-02-25T06:28:41.555Z,0.50
2023-02-25T06:31:14.452Z,0.60
2023-02-25T06:33:41.418Z,0.70
2023-02-25T06:36:09.363Z,0.70
2023-02-25T06:38:36.622Z,0.80
2023-02-25T06:41:08.533Z,0.90
2023-02-25T06:43:36.168Z,0.90
2023-02-25T06:46:08.158Z,0.90
2023-02-25T06:48:35.326Z,0.70
2023-02-25T06:51:02.923Z,0.70
2023-02-25T06:53:29.841Z,0.70
2023-02-25T06:55:58.651Z,0.70
2023-02-25T06:58:25.342Z,0.70
2023-02-25T07:00:52.029Z,0.60
2023-02-25T07:03:18.763Z,0.50
2023-02-25T07:05:45.455Z,0.50
2023-02-25T07:08:12.122Z,0.50
2023-02-25T07:10:41.621Z,0.50
2023-02-25T07:13:09.447Z,0.60
2023-02-25T07:15:36.332Z,0.60
2023-02-25T07:18:03.737Z,0.60
2023-02-25T07:20:30.708Z,0.60
2023-02-25T07:22:57.474Z,0.40
2023-02-25T07:25:24.479Z,0.40
2023-02-25T07:27:51.241Z,0.50
2023-02-25T07:30:18.111Z,0.50
2023-02-25T07:32:45.596Z,0.50
2023-02-25T07:35:13.125Z,0.50
2023-02-25T07:37:40.168Z,0.60
2023-02-25T07:40:13.870Z,0.50
2023-02-25T07:42:41.581Z,0.60
2023-02-25T07:45:10.157Z,0.60
2023-02-25T07:47:37.768Z,0.70
2023-02-25T07:50:06.230Z,0.70
2023-02-25T07:52:32.946Z,0.70
2023-02-25T07:54:59.623Z,0.70
2023-02-25T07:57:27.652Z,0.70
2023-02-25T07:59:54.336Z,0.70
2023-02-25T08:02:21.569Z,0.70
2023-02-25T08:04:48.424Z,0.80
2023-02-25T08:07:15.231Z,0.90
2023-02-25T08:09:41.987Z,1.00
2023-02-25T08:12:09.502Z,1.20
2023-02-25T08:14:38.154Z,1.30
2023-02-25T08:17:05.213Z,1.10
2023-02-25T08:19:31.930Z,0.80
2023-02-25T08:21:58.660Z,0.70
2023-02-25T08:24:26.197Z,0.80
2023-02-25T08:26:52.858Z,0.50
2023-02-25T08:29:19.541Z,0.50
2023-02-25T08:31:46.917Z,0.50
2023-02-25T08:34:13.863Z,0.50
2023-02-25T08:36:40.658Z,0.70
2023-02-25T08:39:08.947Z,0.70
2023-02-25T08:41:36.495Z,0.80
2023-02-25T08:44:03.831Z,0.80
2023-02-25T08:46:33.227Z,0.80
2023-02-25T08:49:00.154Z,1.00
2023-02-25T08:51:34.169Z,0.90
2023-02-25T08:54:11.305Z,0.90
2023-02-25T08:56:44.064Z,1.00
2023-02-25T08:59:15.502Z,0.80
2023-02-25T09:01:45.819Z,0.60
2023-02-25T09:04:14.848Z,0.60
2023-02-25T09:06:41.709Z,0.50
2023-02-25T09:09:08.916Z,0.60
2023-02-25T09:11:35.598Z,0.40
2023-02-25T09:14:02.308Z,0.30
2023-02-25T09:16:30.233Z,0.30
2023-02-25T09:18:57.184Z,0.30
2023-02-25T09:21:25.561Z,0.30
2023-02-25T09:23:52.700Z,0.40
2023-02-25T09:26:21.409Z,0.40
2023-02-25T09:28:49.391Z,0.40
2023-02-25T09:31:17.455Z,0.40
2023-02-25T09:33:45.260Z,0.50
2023-02-25T09:36:14.933Z,0.60
2023-02-25T09:38:43.616Z,0.40
2023-02-25T09:41:29.081Z,0.40
2023-02-25T09:44:26.938Z,0.40
2023-02-25T09:47:16.078Z,0.40
2023-02-25T09:49:55.889Z,0.50
2023-02-25T09:52:46.985Z,0.50
2023-02-25T09:55:31.754Z,0.60
2023-02-25T09:58:26.464Z,0.50
2023-02-25T10:00:57.653Z,0.50
2023-02-25T10:03:47.280Z,0.50
2023-02-25T10:06:32.501Z,0.30
2023-02-25T10:09:07.320Z,0.40
2023-02-25T10:12:15.867Z,0.30
2023-02-25T10:15:13.490Z,0.40
2023-02-25T10:17:51.938Z,0.20
2023-02-25T10:20:39.123Z,0.30
2023-02-25T10:23:14.487Z,0.50
2023-02-25T10:25:50.007Z,0.40
2023-02-25T10:28:18.280Z,0.30
2023-02-25T10:31:08.081Z,0.20
2023-02-25T10:33:37.858Z,0.10
2023-02-25T10:36:19.639Z,0.20
2023-02-25T10:38:51.882Z,0.10
2023-02-25T10:41:22.643Z,0.10
2023-02-25T10:43:51.400Z,0.10
2023-02-25T10:46:28.483Z,0.30
2023-02-25T10:49:00.611Z,0.20
2023-02-25T10:51:29.528Z,0.10
2023-02-25T10:54:07.138Z,0.20
2023-02-25T10:56:44.424Z,0.20
2023-02-25T10:59:31.141Z,0.30
2023-02-25T11:02:00.154Z,0.40
2023-02-25T11:04:37.529Z,0.30
2023-02-25T11:07:41.571Z,0.30
2023-02-25T11:10:11.712Z,0.20
2023-02-25T11:12:57.197Z,0.30
2023-02-25T11:15:46.045Z,0.30
2023-02-25T11:18:23.129Z,0.40
2023-02-25T11:20:56.048Z,0.30
2023-02-25T11:23:43.334Z,0.40
2023-02-25T11:26:27.952Z,0.30
2023-02-25T11:28:55.996Z,0.20
2023-02-25T11:31:25.739Z,0.40
2023-02-25T11:34:01.723Z,0.50
2023-02-25T11:36:34.471Z,0.60
2023-02-25T11:39:26.724Z,0.50
2023-02-25T11:42:17.871Z,0.60
2023-02-25T11:44:45.601Z,0.60
2023-02-25T11:47:36.734Z,0.70
2023-02-25T11:50:20.978Z,0.80
2023-02-25T11:53:00.289Z,0.90
2023-02-25T11:55:48.767Z,0.90
2023-02-25T11:58:53.329Z,0.80
2023-02-25T12:01:57.893Z,0.90
2023-02-25T12:05:03.377Z,0.70
2023-02-25T12:08:12.035Z,1.00
2023-02-25T12:10:58.806Z,0.80
2023-02-25T12:13:34.664Z,0.80
2023-02-25T12:16:33.455Z,1.00
2023-02-25T12:19:25.022Z,1.00
2023-02-25T12:22:15.111Z,0.90
2023-02-25T12:24:45.198Z,0.80
2023-02-25T12:27:47.194Z,0.90
2023-02-25T12:30:20.807Z,0.90
2023-02-25T12:32:53.765Z,0.70
2023-02-25T12:35:51.784Z,0.60
2023-02-25T12:38:58.274Z,0.50
2023-02-25T12:41:39.989Z,0.60
2023-02-25T12:44:24.409Z,0.50
2023-02-25T12:47:30.075Z,0.60
2023-02-25T12:50:08.089Z,0.40
2023-02-25T12:52:56.148Z,0.50
2023-02-25T12:55:36.778Z,0.60
2023-02-25T12:58:25.439Z,0.50
2023-02-25T13:00:55.691Z,0.50
2023-02-25T13:03:50.119Z,0.50
2023-02-25T13:06:26.050Z,0.40
2023-02-25T13:09:19.967Z,0.50
2023-02-25T13:12:11.892Z,0.60
2023-02-25T13:14:39.200Z,0.60
2023-02-25T13:17:18.087Z,0.60
2023-02-25T13:20:20.432Z,0.50
2023-02-25T13:23:08.309Z,0.60
2023-02-25T13:26:05.872Z,0.60
2023-02-25T13:28:44.483Z,0.60
2023-02-25T13:31:46.855Z,0.60
2023-02-25T13:34:34.554Z,0.70
2023-02-25T13:37:32.478Z,0.80
2023-02-25T13:40:26.718Z,0.80
2023-02-25T13:43:03.423Z,0.80
2023-02-25T13:45:49.861Z,0.80
2023-02-25T13:48:55.732Z,0.80
2023-02-25T13:52:00.850Z,0.90
2023-02-25T13:54:39.589Z,0.90
2023-02-25T13:57:24.830Z,0.90
2023-02-25T14:00:09.331Z,0.90
2023-02-25T14:03:14.865Z,1.00
2023-02-25T14:06:08.480Z,0.90
2023-02-25T14:08:44.665Z,1.00
2023-02-25T14:11:37.584Z,1.00
2023-02-25T14:14:04.244Z,1.10
2023-02-25T14:16:44.774Z,1.10
2023-02-25T14:19:26.139Z,1.20
2023-02-25T14:22:21.198Z,1.30
2023-02-25T14:25:07.958Z,1.40
2023-02-25T14:27:52.776Z,1.30
2023-02-25T14:30:30.096Z,1.30
2023-02-25T14:33:15.535Z,1.20
2023-02-25T14:35:54.666Z,1.40
2023-02-25T14:38:40.288Z,1.10
2023-02-25T14:41:44.138Z,1.00
2023-02-25T14:44:20.114Z,1.10
2023-02-25T14:46:58.219Z,1.00
2023-02-25T14:49:47.281Z,1.00
2023-02-25T14:52:51.139Z,1.00
2023-02-25T14:55:39.497Z,1.00
2023-02-25T14:58:35.563Z,0.90
2023-02-25T15:01:20.910Z,0.80
2023-02-25T15:04:15.666Z,0.80
2023-02-25T15:07:44.074Z,0.90
2023-02-25T15:10:41.607Z,0.80
2023-02-25T15:13:31.315Z,0.90
2023-02-25T15:16:22.622Z,0.80
2023-02-25T15:18:55.391Z,0.80
2023-02-25T15:21:48.255Z,0.80
2023-02-25T15:24:26.988Z,0.80
2023-02-25T15:26:55.887Z,0.90
2023-02-25T15:29:28.466Z,0.90
2023-02-25T15:32:23.020Z,0.80
2023-02-25T15:35:05.964Z,0.80
2023-02-25T15:37:35.352Z,0.50
2023-02-25T15:40:15.103Z,0.60
2023-02-25T15:42:53.900Z,0.60
2023-02-25T15:45:27.210Z,0.50
2023-02-25T15:48:12.589Z,0.40
2023-02-25T15:50:42.189Z,0.40
2023-02-25T15:53:35.858Z,0.40
2023-02-25T15:56:05.567Z,0.50
2023-02-25T15:58:32.265Z,0.50
2023-02-25T16:01:05.842Z,0.50
2023-02-25T16:03:34.653Z,0.50
2023-02-25T16:06:38.917Z,0.40
2023-02-25T16:09:10.212Z,0.40
2023-02-25T16:11:44.204Z,0.30
2023-02-25T16:14:25.438Z,0.30
2023-02-25T16:17:06.507Z,0.30
2023-02-25T16:19:37.192Z,0.30
2023-02-25T16:22:11.157Z,0.40
2023-02-25T16:24:40.331Z,0.40
2023-02-25T16:27:22.642Z,0.40
2023-02-25T16:29:55.077Z,0.30
2023-02-25T16:32:27.930Z,0.30
2023-02-25T16:35:19.078Z,0.30
2023-02-25T16:38:02.166Z,0.20
2023-02-25T16:40:37.710Z,0.20
2023-02-25T16:43:05.418Z,0.20
2023-02-25T16:45:56.085Z,0.10
2023-02-25T16:48:58.434Z,0.20
2023-02-25T16:51:31.920Z,0.10
2023-02-25T16:54:06.470Z,0.10
2023-02-25T16:56:33.668Z,0.10
2023-02-25T16:59:17.138Z,0.20
2023-02-25T17:02:15.745Z,0.20
2023-02-25T17:04:51.159Z,0.10
2023-02-25T17:07:24.213Z,0.20
2023-02-25T17:10:01.813Z,0.10
2023-02-25T17:12:30.876Z,0.20
2023-02-25T17:15:00.384Z,0.20
2023-02-25T17:17:32.931Z,0.20
2023-02-25T17:20:04.520Z,0.30
2023-02-25T17:22:32.000Z,0.20
2023-02-25T17:25:00.155Z,0.10
2023-02-25T17:27:28.711Z,0.00
2023-02-25T17:29:56.012Z,-0.10
2023-02-25T17:32:29.010Z,-0.20
2023-02-25T17:35:00.382Z,-0.30
2023-02-25T17:37:29.627Z,-0.30
2023-02-25T17:39:56.779Z,-0.30
2023-02-25T17:42:36.811Z,-0.30
2023-02-25T17:45:38.590Z,-0.30
2023-02-25T17:48:05.664Z,-0.10
2023-02-25T17:50:33.148Z,-0.10
2023-02-25T17:53:00.328Z,-0.10
2023-02-25T17:55:34.686Z,-0.10
2023-02-25T17:58:03.130Z,-0.10
2023-02-25T18:00:34.253Z,-0.20
2023-02-25T18:03:30.552Z,-0.20
2023-02-25T18:06:00.250Z,-0.30
2023-02-25T18:08:29.714Z,-0.30
2023-02-25T18:11:06.601Z,-0.30
2023-02-25T18:13:37.415Z,-0.30
2023-02-25T18:16:22.700Z,-0.30
2023-02-25T18:18:51.601Z,-0.40
2023-02-25T18:21:19.120Z,-0.40
2023-02-25T18:23:48.284Z,-0.40
2023-02-25T18:26:19.146Z,-0.50
2023-02-25T18:28:46.989Z,-0.50
2023-02-25T18:31:19.313Z,-0.40
2023-02-25T18:33:46.744Z,-0.50
2023-02-25T18:36:26.334Z,-0.50
2023-02-25T18:38:56.996Z,-0.40
2023-02-25T18:41:24.008Z,-0.40
2023-02-25T18:43:51.791Z,-0.20
2023-02-25T18:46:18.531Z,-0.10
2023-02-25T18:48:45.336Z,-0.10
2023-02-25T18:51:15.021Z,0.00
2023-02-25T18:53:42.101Z,0.00
2023-02-25T18:56:15.616Z,0.00
2023-02-25T18:58:42.877Z,0.10
2023-02-25T19:01:23.354Z,0.00
2023-02-25T19:03:51.142Z,-0.20
2023-02-25T19:06:18.560Z,-0.20
2023-02-25T19:08:45.847Z,-0.30
2023-02-25T19:11:24.863Z,-0.20
2023-02-25T19:13:52.086Z,-0.30
2023-02-25T19:16:19.248Z,-0.20
2023-02-25T19:18:49.960Z,-0.20
2023-02-25T19:21:20.205Z,-0.20
2023-02-25T19:23:51.629Z,-0.20
2023-02-25T19:26:19.039Z,-0.20
2023-02-25T19:28:46.082Z,-0.20
2023-02-25T19:31:13.011Z,-0.20
2023-02-25T19:33:39.841Z,-0.10
2023-02-25T19:36:08.554Z,-0.10
2023-02-25T19:38:35.479Z,-0.10
2023-02-25T19:41:04.238Z,0.00
2023-02-25T19:43:32.429Z,0.10
2023-02-25T19:45:59.480Z,0.10
2023-02-25T19:48:26.362Z,0.10
2023-02-25T19:50:53.061Z,0.10
2023-02-25T19:53:19.755Z,0.10
2023-02-25T19:55:46.527Z,0.00
2023-02-25T19:58:13.246Z,0.10
2023-02-25T20:00:45.687Z,0.10
2023-02-25T20:03:13.070Z,0.00
2023-02-25T20:05:40.152Z,0.00
2023-02-25T20:08:07.112Z,-0.10
2023-02-25T20:10:33.860Z,-0.10
2023-02-25T20:13:00.608Z,-0.20
2023-02-25T20:15:27.568Z,-0.20
2023-02-25T20:17:57.364Z,-0.30
2023-02-25T20:20:24.197Z,-0.20
2023-02-25T20:22:51.148Z,-0.20
2023-02-25T20:25:17.990Z,-0.20
2023-02-25T20:27:44.722Z,-0.30
2023-02-25T20:30:14.779Z,-0.30
2023-02-25T20:32:43.144Z,-0.40
2023-02-25T20:35:17.142Z,-0.40
2023-02-25T20:37:58.922Z,-0.40
2023-02-25T20:40:26.116Z,-0.40
2023-02-25T20:42:52.884Z,-0.40
2023-02-25T20:45:20.014Z,-0.40
2023-02-25T20:47:46.859Z,-0.50
2023-02-25T20:50:15.847Z,-0.50
2023-02-25T20:52:42.808Z,-0.40
2023-02-25T20:55:10.424Z,-0.40
2023-02-25T20:57:37.267Z,-0.40
2023-02-25T21:00:06.091Z,-0.50
2023-02-25T21:02:32.918Z,-0.60
2023-02-25T21:04:59.789Z,-0.60
2023-02-25T21:07:26.857Z,-0.60
2023-02-25T21:09:53.689Z,-0.70
2023-02-25T21:12:20.561Z,-0.70
2023-02-25T21:14:47.520Z,-0.60
2023-02-25T21:17:14.550Z,-0.70
2023-02-25T21:19:41.570Z,-0.70
2023-02-25T21:22:08.793Z,-0.80
2023-02-25T21:24:36.704Z,-0.70
2023-02-25T21:27:04.175Z,-0.70
2023-02-25T21:29:32.433Z,-0.60
2023-02-25T21:31:59.264Z,-0.70
2023-02-25T21:34:26.182Z,-0.70
2023-02-25T21:36:52.999Z,-0.70
2023-02-25T21:39:19.896Z,-0.70
2023-02-25T21:41:46.687Z,-0.80
2023-02-25T21:44:13.884Z,-0.70
2023-02-25T21:46:41.237Z,-0.70
2023-02-25T21:49:10.470Z,-0.70
2023-02-25T21:51:37.680Z,-0.70
2023-02-25T21:54:04.644Z,-0.60
2023-02-25T21:56:31.631Z,-0.70
2023-02-25T21:59:05.333Z,-0.60
2023-02-25T22:01:35.915Z,-0.60
2023-02-25T22:04:03.448Z,-0.70
2023-02-25T22:06:30.735Z,-0.90
2023-02-25T22:08:57.566Z,-1.10
2023-02-25T22:11:27.354Z,-1.20
2023-02-25T22:13:54.313Z,-1.30
2023-02-25T22:16:23.003Z,-1.40
2023-02-25T22:18:50.747Z,-1.40
2023-02-25T22:21:20.842Z,-1.50
2023-02-25T22:23:49.449Z,-1.50
2023-02-25T22:26:21.522Z,-1.50
2023-02-25T22:28:48.644Z,-1.50
2023-02-25T22:31:18.745Z,-1.50
2023-02-25T22:33:45.531Z,-1.60
2023-02-25T22:36:13.691Z,-1.60
2023-02-25T22:38:43.290Z,-1.60
2023-02-25T22:41:22.263Z,-1.70
2023-02-25T22:43:49.681Z,-1.80
2023-02-25T22:46:19.179Z,-1.90
2023-02-25T22:48:47.744Z,-1.90
2023-02-25T22:51:19.431Z,-2.00
2023-02-25T22:53:46.258Z,-1.90
2023-02-25T22:56:13.196Z,-1.90
2023-02-25T22:58:40.663Z,-2.00
2023-02-25T23:01:09.383Z,-2.00
2023-02-25T23:03:36.260Z,-2.00
2023-02-25T23:06:02.985Z,-2.00
2023-02-25T23:08:29.750Z,-2.10
2023-02-25T23:10:56.568Z,-2.10
2023-02-25T23:13:23.273Z,-2.00
2023-02-25T23:15:50.169Z,-2.00
2023-02-25T23:18:17.049Z,-2.00
2023-02-25T23:20:44.457Z,-1.90
2023-02-25T23:23:13.511Z,-1.90
2023-02-25T23:25:41.448Z,-1.90
2023-02-25T23:28:09.629Z,-1.90
2023-02-25T23:30:38.688Z,-1.90
2023-02-25T23:33:06.218Z,-1.90
2023-02-25T23:35:33.745Z,-1.80
2023-02-25T23:38:00.933Z,-1.90
2023-02-25T23:40:28.873Z,-2.00
2023-02-25T23:42:55.765Z,-1.90
2023-02-25T23:45:22.753Z,-2.10
2023-02-25T23:47:49.519Z,-2.10
2023-02-25T23:50:17.578Z,-2.00
2023-02-25T23:52:46.580Z,-2.00
2023-02-25T23:55:14.374Z,-1.90
2023-02-25T23:57:41.314Z,-1.90
